createdAt,value
2022-11-25T00:01:27.112Z,95.58
2022-11-25T00:03:54.499Z,95.31
2022-11-25T00:06:22.200Z,95.51
2022-11-25T00:08:49.963Z,95.24
2022-11-25T00:11:18.434Z,95.44
2022-11-25T00:13:45.453Z,95.57
2022-11-25T00:16:16.322Z,94.96
2022-11-25T00:18:50.089Z,95.24
2022-11-25T00:21:17.727Z,95.01
2022-11-25T00:23:44.455Z,95.33
2022-11-25T00:26:12.383Z,95.63
2022-11-25T00:28:39.409Z,96.10
2022-11-25T00:31:10.174Z,96.32
2022-11-25T00:33:37.321Z,95.97
2022-11-25T00:36:04.487Z,95.52
2022-11-25T00:38:30.869Z,95.25
2022-11-25T00:41:15.824Z,95.29
2022-11-25T00:44:00.602Z,95.80
2022-11-25T00:46:27.133Z,95.47
2022-11-25T00:48:53.532Z,95.40
2022-11-25T00:51:19.942Z,95.79
2022-11-25T00:53:46.349Z,95.51
2022-11-25T00:56:15.748Z,95.98
2022-11-25T00:58:43.239Z,95.84
2022-11-25T01:01:09.950Z,96.01
2022-11-25T01:03:39.403Z,95.20
2022-11-25T01:06:07.536Z,95.78
2022-11-25T01:08:34.586Z,95.78
2022-11-25T01:11:05.741Z,95.28
2022-11-25T01:13:32.435Z,95.28
2022-11-25T01:16:01.549Z,95.43
2022-11-25T01:18:28.664Z,95.59
2022-11-25T01:20:55.087Z,95.64
2022-11-25T01:23:21.559Z,95.40
2022-11-25T01:25:47.953Z,95.54
2022-11-25T01:28:14.315Z,95.78
2022-11-25T01:30:41.356Z,96.02
2022-11-25T01:33:07.842Z,96.36
2022-11-25T01:35:36.672Z,96.09
2022-11-25T01:38:03.043Z,95.90
2022-11-25T01:40:29.425Z,95.91
2022-11-25T01:42:55.810Z,96.15
2022-11-25T01:45:23.164Z,96.49
2022-11-25T01:47:54.312Z,95.94
2022-11-25T01:50:23.389Z,95.87
2022-11-25T01:52:51.100Z,95.34
2022-11-25T01:55:23.247Z,95.75
2022-11-25T01:57:49.653Z,95.62
2022-11-25T02:00:16.808Z,95.23
2022-11-25T02:02:43.620Z,95.76
2022-11-25T02:05:11.925Z,95.70
2022-11-25T02:07:40.222Z,95.64
2022-11-25T02:10:16.593Z,95.69
2022-11-25T02:12:44.490Z,95.54
2022-11-25T02:15:11.044Z,95.46
2022-11-25T02:17:37.720Z,95.50
2022-11-25T02:20:04.495Z,95.26
2022-11-25T02:22:51.196Z,95.63
2022-11-25T02:25:17.725Z,96.02
2022-11-25T02:27:46.178Z,96.05
2022-11-25T02:30:13.794Z,96.28
2022-11-25T02:32:44.340Z,96.23
2022-11-25T02:35:25.809Z,96.21
2022-11-25T02:37:52.755Z,96.07
2022-11-25T02:40:19.406Z,96.02
2022-11-25T02:42:47.052Z,96.25
2022-11-25T02:45:15.753Z,95.40
2022-11-25T02:47:42.140Z,95.67
2022-11-25T02:50:08.687Z,95.54
2022-11-25T02:52:35.075Z,95.52
2022-11-25T02:55:01.498Z,95.18
2022-11-25T02:57:27.902Z,95.54
2022-11-25T02:59:54.273Z,95.21
2022-11-25T03:02:20.744Z,95.32
2022-11-25T03:04:47.161Z,94.90
2022-11-25T03:07:13.570Z,94.94
2022-11-25T03:09:40.097Z,94.74
2022-11-25T03:12:21.793Z,95.07
2022-11-25T03:14:48.274Z,95.14
2022-11-25T03:17:14.699Z,94.56
2022-11-25T03:19:41.081Z,94.74
2022-11-25T03:22:07.700Z,94.92
2022-11-25T03:24:34.459Z,94.91
2022-11-25T03:27:01.033Z,94.66
2022-11-25T03:29:27.429Z,94.38
2022-11-25T03:31:53.859Z,93.75
2022-11-25T03:34:20.635Z,94.21
2022-11-25T03:36:47.094Z,93.95
2022-11-25T03:39:13.513Z,94.13
2022-11-25T03:41:39.921Z,94.10
2022-11-25T03:44:06.349Z,93.98
2022-11-25T03:46:32.783Z,93.54
2022-11-25T03:48:59.165Z,93.91
2022-11-25T03:51:25.768Z,93.44
2022-11-25T03:53:52.137Z,93.48
2022-11-25T03:56:18.502Z,93.44
2022-11-25T03:58:44.934Z,93.73
2022-11-25T04:01:11.390Z,92.78
2022-11-25T04:03:37.812Z,92.70
2022-11-25T04:06:04.220Z,93.08
2022-11-25T04:08:30.603Z,92.47
2022-11-25T04:10:57.039Z,92.48
2022-11-25T04:13:23.462Z,92.28
2022-11-25T04:15:50.488Z,92.88
2022-11-25T04:18:17.648Z,92.78
2022-11-25T04:20:44.283Z,92.58
2022-11-25T04:23:11.740Z,92.41
2022-11-25T04:25:38.491Z,92.38
2022-11-25T04:28:04.978Z,92.26
2022-11-25T04:30:32.000Z,92.32
2022-11-25T04:32:58.423Z,92.57
2022-11-25T04:35:24.820Z,92.66
2022-11-25T04:37:51.215Z,92.73
2022-11-25T04:40:17.710Z,92.75
2022-11-25T04:42:44.079Z,92.57
2022-11-25T04:45:22.841Z,92.92
2022-11-25T04:47:50.342Z,92.79
2022-11-25T04:50:19.174Z,92.90
2022-11-25T04:52:45.567Z,93.03
2022-11-25T04:55:11.973Z,92.97
2022-11-25T04:57:38.545Z,92.88
2022-11-25T05:00:05.858Z,93.15
2022-11-25T05:02:32.319Z,93.28
2022-11-25T05:04:58.797Z,92.87
2022-11-25T05:07:26.140Z,93.61
2022-11-25T05:09:52.646Z,93.63
2022-11-25T05:12:23.780Z,93.38
2022-11-25T05:14:50.175Z,93.59
2022-11-25T05:17:17.922Z,93.29
2022-11-25T05:19:46.038Z,93.11
2022-11-25T05:22:13.287Z,93.26
2022-11-25T05:24:39.796Z,93.13
2022-11-25T05:27:06.647Z,93.16
2022-11-25T05:29:33.068Z,93.04
2022-11-25T05:31:59.538Z,93.10
2022-11-25T05:34:26.283Z,93.27
2022-11-25T05:36:52.868Z,93.63
2022-11-25T05:39:19.353Z,93.47
2022-11-25T05:41:45.831Z,93.53
2022-11-25T05:44:12.198Z,93.37
2022-11-25T05:46:38.664Z,93.83
2022-11-25T05:49:05.198Z,93.90
2022-11-25T05:51:31.639Z,93.78
2022-11-25T05:53:58.182Z,94.12
2022-11-25T05:56:24.550Z,94.18
2022-11-25T05:58:50.986Z,93.71
2022-11-25T06:01:17.707Z,94.34
2022-11-25T06:03:44.272Z,94.31
2022-11-25T06:06:11.229Z,94.44
2022-11-25T06:08:40.419Z,94.06
2022-11-25T06:11:08.035Z,94.10
2022-11-25T06:13:34.422Z,94.55
2022-11-25T06:16:07.837Z,94.55
2022-11-25T06:18:35.415Z,94.47
2022-11-25T06:21:01.929Z,94.77
2022-11-25T06:23:28.331Z,94.92
2022-11-25T06:25:54.712Z,94.50
2022-11-25T06:28:21.133Z,94.64
2022-11-25T06:30:47.566Z,94.53
2022-11-25T06:33:14.099Z,95.09
2022-11-25T06:35:40.517Z,95.29
2022-11-25T06:38:07.200Z,95.55
2022-11-25T06:40:33.615Z,95.54
2022-11-25T06:43:00.013Z,95.55
2022-11-25T06:45:26.399Z,95.70
2022-11-25T06:47:53.683Z,95.62
2022-11-25T06:50:20.132Z,95.67
2022-11-25T06:52:46.505Z,96.03
2022-11-25T06:55:12.899Z,95.80
2022-11-25T06:57:39.337Z,95.86
2022-11-25T07:00:06.107Z,96.62
2022-11-25T07:02:39.781Z,96.35
2022-11-25T07:05:08.323Z,96.78
2022-11-25T07:07:34.755Z,96.71
2022-11-25T07:10:01.149Z,96.79
2022-11-25T07:12:27.522Z,96.60
2022-11-25T07:14:54.095Z,96.42
2022-11-25T07:17:20.463Z,96.59
2022-11-25T07:19:46.817Z,96.86
2022-11-25T07:22:13.252Z,96.71
2022-11-25T07:24:39.626Z,97.25
2022-11-25T07:27:07.003Z,97.47
2022-11-25T07:29:58.000Z,97.81
2022-11-25T07:32:22.647Z,98.01
2022-11-25T07:34:50.233Z,98.07
2022-11-25T07:37:17.858Z,97.45
2022-11-25T07:39:44.258Z,97.76
2022-11-25T07:42:10.637Z,97.83
2022-11-25T07:44:37.034Z,98.00
2022-11-25T07:47:03.417Z,98.07
2022-11-25T07:49:29.853Z,97.72
2022-11-25T07:51:59.637Z,97.86
2022-11-25T07:54:26.178Z,97.96
2022-11-25T07:56:52.708Z,97.83
2022-11-25T07:59:20.690Z,97.57
2022-11-25T08:01:49.124Z,97.55
2022-11-25T08:04:20.188Z,97.51
2022-11-25T08:06:48.007Z,97.11
2022-11-25T08:09:15.933Z,97.29
2022-11-25T08:11:42.611Z,97.33
2022-11-25T08:14:10.275Z,98.25
2022-11-25T08:16:37.595Z,97.77
2022-11-25T08:19:05.484Z,97.94
2022-11-25T08:21:31.985Z,97.78
2022-11-25T08:23:58.652Z,98.12
2022-11-25T08:26:26.497Z,97.83
2022-11-25T08:28:53.933Z,97.68
2022-11-25T08:31:21.808Z,97.50
2022-11-25T08:33:48.994Z,97.99
2022-11-25T08:36:15.732Z,97.73
2022-11-25T08:38:42.775Z,97.61
2022-11-25T08:41:29.488Z,97.24
2022-11-25T08:43:56.759Z,97.48
2022-11-25T08:46:24.324Z,97.13
2022-11-25T08:48:50.811Z,97.94
2022-11-25T08:51:19.555Z,98.23
2022-11-25T08:53:46.389Z,98.52
2022-11-25T08:56:13.525Z,98.75
2022-11-25T08:58:39.911Z,99.12
2022-11-25T09:01:06.875Z,98.85
2022-11-25T09:03:37.126Z,99.35
2022-11-25T09:06:04.319Z,99.42
2022-11-25T09:08:31.297Z,99.82
2022-11-25T09:10:58.082Z,99.80
2022-11-25T09:13:24.564Z,99.53
2022-11-25T09:15:51.060Z,99.75
2022-11-25T09:18:20.127Z,99.65
2022-11-25T09:20:46.889Z,99.84
2022-11-25T09:23:13.699Z,99.83
2022-11-25T09:25:40.118Z,99.84
2022-11-25T09:28:06.492Z,100.00
2022-11-25T09:30:33.077Z,100.00
2022-11-25T09:32:59.470Z,100.00
2022-11-25T09:35:25.933Z,99.78
2022-11-25T09:37:52.504Z,99.96
2022-11-25T09:40:19.074Z,100.00
2022-11-25T09:43:07.047Z,99.90
2022-11-25T09:46:04.376Z,99.59
2022-11-25T09:48:31.024Z,99.50
2022-11-25T09:51:13.219Z,99.38
2022-11-25T09:53:42.482Z,99.78
2022-11-25T09:56:22.665Z,100.00
2022-11-25T09:58:52.312Z,99.75
2022-11-25T10:01:21.534Z,99.43
2022-11-25T10:03:53.203Z,100.00
2022-11-25T10:06:21.493Z,100.00
2022-11-25T10:08:49.331Z,100.00
2022-11-25T10:11:27.059Z,100.00
2022-11-25T10:14:00.528Z,100.00
2022-11-25T10:16:33.570Z,100.00
2022-11-25T10:19:01.685Z,100.00
2022-11-25T10:21:28.629Z,100.00
2022-11-25T10:23:55.217Z,100.00
2022-11-25T10:26:25.553Z,100.00
2022-11-25T10:28:55.908Z,100.00
2022-11-25T10:31:26.540Z,100.00
2022-11-25T10:33:54.859Z,100.00
2022-11-25T10:36:27.248Z,100.00
2022-11-25T10:38:59.221Z,100.00
2022-11-25T10:41:28.555Z,100.00
2022-11-25T10:43:55.015Z,100.00
2022-11-25T10:46:49.752Z,100.00
2022-11-25T10:49:43.117Z,100.00
2022-11-25T10:52:11.590Z,100.00
2022-11-25T10:54:38.107Z,100.00
2022-11-25T10:57:15.863Z,100.00
2022-11-25T10:59:42.424Z,100.00
2022-11-25T11:02:23.978Z,100.00
2022-11-25T11:04:53.318Z,100.00
2022-11-25T11:07:20.039Z,100.00
2022-11-25T11:09:48.272Z,100.00
2022-11-25T11:12:23.871Z,100.00
2022-11-25T11:14:50.938Z,100.00
2022-11-25T11:17:36.088Z,100.00
2022-11-25T11:20:06.578Z,100.00
2022-11-25T11:22:33.463Z,100.00
2022-11-25T11:25:25.579Z,100.00
2022-11-25T11:27:51.954Z,100.00
2022-11-25T11:30:23.938Z,100.00
2022-11-25T11:33:06.958Z,100.00
2022-11-25T11:36:08.949Z,100.00
2022-11-25T11:38:37.594Z,100.00
2022-11-25T11:41:06.815Z,100.00
2022-11-25T11:43:51.998Z,100.00
2022-11-25T11:46:28.090Z,100.00
2022-11-25T11:48:57.298Z,100.00
2022-11-25T11:51:29.865Z,100.00
2022-11-25T11:54:04.947Z,100.00
2022-11-25T11:56:35.979Z,100.00
2022-11-25T11:59:18.532Z,100.00
2022-11-25T12:02:03.525Z,100.00
2022-11-25T12:04:36.433Z,100.00
2022-11-25T12:07:09.076Z,100.00
2022-11-25T12:09:49.401Z,100.00
2022-11-25T12:12:19.260Z,100.00
2022-11-25T12:14:49.449Z,100.00
2022-11-25T12:17:23.420Z,100.00
2022-11-25T12:19:54.996Z,100.00
2022-11-25T12:22:21.365Z,100.00
2022-11-25T12:24:59.937Z,100.00
2022-11-25T12:27:33.385Z,100.00
2022-11-25T12:30:13.613Z,100.00
2022-11-25T12:32:56.986Z,100.00
2022-11-25T12:35:38.547Z,100.00
2022-11-25T12:38:04.965Z,100.00
2022-11-25T12:40:36.043Z,100.00
2022-11-25T12:43:18.459Z,100.00
2022-11-25T12:45:47.172Z,100.00
2022-11-25T12:48:17.342Z,100.00
2022-11-25T12:50:58.497Z,100.00
2022-11-25T12:53:36.650Z,100.00
2022-11-25T12:56:10.506Z,100.00
2022-11-25T12:58:44.572Z,100.00
2022-11-25T13:01:30.163Z,100.00
2022-11-25T13:04:05.804Z,100.00
2022-11-25T13:06:46.105Z,100.00
2022-11-25T13:09:27.717Z,100.00
2022-11-25T13:12:13.326Z,100.00
2022-11-25T13:14:57.918Z,100.00
2022-11-25T13:17:25.446Z,100.00
2022-11-25T13:20:12.269Z,100.00
2022-11-25T13:22:38.687Z,100.00
2022-11-25T13:25:21.587Z,100.00
2022-11-25T13:27:47.935Z,100.00
2022-11-25T13:30:32.765Z,100.00
2022-11-25T13:33:11.529Z,100.00
2022-11-25T13:35:47.047Z,100.00
2022-11-25T13:38:34.878Z,100.00
2022-11-25T13:41:02.905Z,100.00
2022-11-25T13:43:29.332Z,100.00
2022-11-25T13:45:56.068Z,100.00
2022-11-25T13:48:30.409Z,100.00
2022-11-25T13:51:14.384Z,100.00
2022-11-25T13:53:40.936Z,100.00
2022-11-25T13:56:26.292Z,100.00
2022-11-25T13:59:18.819Z,100.00
2022-11-25T14:01:45.186Z,100.00
2022-11-25T14:04:12.845Z,100.00
2022-11-25T14:06:52.708Z,100.00
2022-11-25T14:09:54.844Z,100.00
2022-11-25T14:12:26.968Z,100.00
2022-11-25T14:14:59.203Z,100.00
2022-11-25T14:17:25.548Z,100.00
2022-11-25T14:19:55.088Z,100.00
2022-11-25T14:22:24.740Z,100.00
2022-11-25T14:24:53.304Z,100.00
2022-11-25T14:27:22.415Z,100.00
2022-11-25T14:30:05.023Z,100.00
2022-11-25T14:32:39.645Z,100.00
2022-11-25T14:35:12.856Z,100.00
2022-11-25T14:37:46.507Z,100.00
2022-11-25T14:40:18.428Z,100.00
2022-11-25T14:42:47.552Z,100.00
2022-11-25T14:45:21.906Z,100.00
2022-11-25T14:47:48.370Z,100.00
2022-11-25T14:53:05.300Z,100.00
2022-11-25T14:55:32.021Z,100.00
2022-11-25T14:57:58.579Z,100.00
2022-11-25T15:00:25.028Z,100.00
2022-11-25T15:02:53.093Z,100.00
2022-11-25T15:05:20.867Z,100.00
2022-11-25T15:07:56.927Z,100.00
2022-11-25T15:10:28.609Z,100.00
2022-11-25T15:12:54.997Z,100.00
2022-11-25T15:15:21.361Z,100.00
2022-11-25T15:17:47.827Z,100.00
2022-11-25T15:20:17.527Z,100.00
2022-11-25T15:22:49.268Z,100.00
2022-11-25T15:25:15.952Z,100.00
2022-11-25T15:27:46.308Z,100.00
2022-11-25T15:30:19.144Z,100.00
2022-11-25T15:32:45.801Z,100.00
2022-11-25T15:35:17.248Z,100.00
2022-11-25T15:37:43.750Z,100.00
2022-11-25T15:40:48.839Z,100.00
2022-11-25T15:43:22.875Z,100.00
2022-11-25T15:45:50.334Z,100.00
2022-11-25T15:48:18.606Z,100.00
2022-11-25T15:50:45.090Z,100.00
2022-11-25T15:53:23.747Z,100.00
2022-11-25T15:55:52.906Z,100.00
2022-11-25T15:58:23.753Z,100.00
2022-11-25T16:01:03.931Z,100.00
2022-11-25T16:03:32.282Z,100.00
2022-11-25T16:05:59.436Z,100.00
2022-11-25T16:08:25.824Z,100.00
2022-11-25T16:10:53.643Z,100.00
2022-11-25T16:13:22.123Z,100.00
2022-11-25T16:16:00.879Z,100.00
2022-11-25T16:18:40.108Z,100.00
2022-11-25T16:21:11.603Z,100.00
2022-11-25T16:23:40.281Z,100.00
2022-11-25T16:26:12.819Z,100.00
2022-11-25T16:28:41.329Z,100.00
2022-11-25T16:31:15.291Z,100.00
2022-11-25T16:33:41.790Z,100.00
2022-11-25T16:36:09.757Z,100.00
2022-11-25T16:38:36.279Z,100.00
2022-11-25T16:41:09.453Z,100.00
2022-11-25T16:43:39.285Z,100.00
2022-11-25T16:46:06.065Z,100.00
2022-11-25T16:48:32.578Z,100.00
2022-11-25T16:50:58.979Z,100.00
2022-11-25T16:53:25.432Z,100.00
2022-11-25T16:55:51.812Z,100.00
2022-11-25T16:58:20.093Z,100.00
2022-11-25T17:00:54.021Z,100.00
2022-11-25T17:03:21.944Z,100.00
2022-11-25T17:05:48.400Z,100.00
2022-11-25T17:08:14.932Z,100.00
2022-11-25T17:10:42.686Z,100.00
2022-11-25T17:13:15.220Z,100.00
2022-11-25T17:15:41.713Z,100.00
2022-11-25T17:18:08.407Z,100.00
2022-11-25T17:20:34.992Z,100.00
2022-11-25T17:23:02.327Z,100.00
2022-11-25T17:25:35.229Z,100.00
2022-11-25T17:28:03.072Z,100.00
2022-11-25T17:30:30.091Z,100.00
2022-11-25T17:33:05.054Z,100.00
2022-11-25T17:35:31.453Z,100.00
2022-11-25T17:37:59.573Z,100.00
2022-11-25T17:40:26.261Z,100.00
2022-11-25T17:42:52.806Z,100.00
2022-11-25T17:45:20.539Z,100.00
2022-11-25T17:47:47.485Z,100.00
2022-11-25T17:50:19.151Z,100.00
2022-11-25T17:52:45.775Z,100.00
2022-11-25T17:55:12.597Z,100.00
2022-11-25T17:57:39.126Z,100.00
2022-11-25T18:00:07.276Z,100.00
2022-11-25T18:02:33.716Z,100.00
2022-11-25T18:05:01.017Z,100.00
2022-11-25T18:07:27.506Z,100.00
2022-11-25T18:09:54.026Z,100.00
2022-11-25T18:12:26.920Z,100.00
2022-11-25T18:14:53.517Z,100.00
2022-11-25T18:17:20.060Z,100.00
2022-11-25T18:19:52.928Z,100.00
2022-11-25T18:22:21.635Z,100.00
2022-11-25T18:24:48.209Z,100.00
2022-11-25T18:27:22.705Z,100.00
2022-11-25T18:29:49.467Z,100.00
2022-11-25T18:32:15.908Z,100.00
2022-11-25T18:34:42.355Z,100.00
2022-11-25T18:37:11.151Z,100.00
2022-11-25T18:39:37.644Z,100.00
2022-11-25T18:42:07.350Z,100.00
2022-11-25T18:44:37.982Z,100.00
2022-11-25T18:47:05.535Z,100.00
2022-11-25T18:49:31.932Z,100.00
2022-11-25T18:51:58.311Z,100.00
2022-11-25T18:54:24.703Z,100.00
2022-11-25T18:56:52.204Z,100.00
2022-11-25T18:59:23.809Z,100.00
2022-11-25T19:01:50.321Z,100.00
2022-11-25T19:04:17.090Z,100.00
2022-11-25T19:06:44.121Z,100.00
2022-11-25T19:09:10.593Z,100.00
2022-11-25T19:11:38.765Z,100.00
2022-11-25T19:14:09.058Z,100.00
2022-11-25T19:16:35.760Z,100.00
2022-11-25T19:19:02.192Z,100.00
2022-11-25T19:21:30.529Z,100.00
2022-11-25T19:23:56.907Z,99.82
2022-11-25T19:26:28.788Z,99.97
2022-11-25T19:28:59.277Z,99.79
2022-11-25T19:31:27.552Z,100.00
2022-11-25T19:33:54.153Z,100.00
2022-11-25T19:36:22.908Z,100.00
2022-11-25T19:38:49.582Z,100.00
2022-11-25T19:41:16.187Z,100.00
2022-11-25T19:43:42.603Z,100.00
2022-11-25T19:46:19.812Z,100.00
2022-11-25T19:48:49.094Z,100.00
2022-11-25T19:51:15.472Z,99.81
2022-11-25T19:53:41.850Z,100.00
2022-11-25T19:56:11.226Z,100.00
2022-11-25T19:58:37.621Z,100.00
2022-11-25T20:01:06.122Z,100.00
2022-11-25T20:03:33.212Z,100.00
2022-11-25T20:05:59.628Z,100.00
2022-11-25T20:08:27.810Z,100.00
2022-11-25T20:10:54.629Z,100.00
2022-11-25T20:13:22.829Z,100.00
2022-11-25T20:15:49.388Z,100.00
2022-11-25T20:18:18.296Z,100.00
2022-11-25T20:20:45.697Z,100.00
2022-11-25T20:23:15.026Z,100.00
2022-11-25T20:25:48.293Z,100.00
2022-11-25T20:28:19.016Z,100.00
2022-11-25T20:30:46.171Z,100.00
2022-11-25T20:33:12.625Z,100.00
2022-11-25T20:35:39.981Z,100.00
2022-11-25T20:38:09.264Z,100.00
2022-11-25T20:40:40.257Z,100.00
2022-11-25T20:43:11.080Z,100.00
2022-11-25T20:45:37.508Z,100.00
2022-11-25T20:48:09.554Z,100.00
2022-11-25T20:50:35.984Z,100.00
2022-11-25T20:53:02.750Z,100.00
2022-11-25T20:55:29.389Z,100.00
2022-11-25T20:57:55.826Z,100.00
2022-11-25T21:00:23.455Z,100.00
2022-11-25T21:02:50.370Z,100.00
2022-11-25T21:05:17.506Z,100.00
2022-11-25T21:07:44.317Z,100.00
2022-11-25T21:10:34.751Z,100.00
2022-11-25T21:13:06.392Z,100.00
2022-11-25T21:15:32.845Z,100.00
2022-11-25T21:17:59.693Z,100.00
2022-11-25T21:20:26.278Z,100.00
2022-11-25T21:22:55.298Z,100.00
2022-11-25T21:25:22.292Z,100.00
2022-11-25T21:27:51.008Z,100.00
2022-11-25T21:30:17.692Z,100.00
2022-11-25T21:32:44.285Z,100.00
2022-11-25T21:35:11.286Z,100.00
2022-11-25T21:37:38.534Z,100.00
2022-11-25T21:40:05.787Z,100.00
2022-11-25T21:42:32.510Z,100.00
2022-11-25T21:44:58.998Z,100.00
2022-11-25T21:47:26.811Z,100.00
2022-11-25T21:49:53.561Z,100.00
2022-11-25T21:52:19.992Z,100.00
2022-11-25T21:54:46.811Z,100.00
2022-11-25T21:57:17.151Z,99.95
2022-11-25T21:59:44.599Z,99.95
2022-11-25T22:02:16.728Z,99.94
2022-11-25T22:04:43.148Z,99.92
2022-11-25T22:07:09.720Z,100.00
2022-11-25T22:09:36.202Z,100.00
2022-11-25T22:12:02.874Z,99.99
2022-11-25T22:14:34.735Z,100.00
2022-11-25T22:17:03.711Z,99.75
2022-11-25T22:19:30.129Z,99.13
2022-11-25T22:21:56.650Z,99.62
2022-11-25T22:24:23.483Z,99.74
2022-11-25T22:26:56.056Z,100.00
2022-11-25T22:29:26.976Z,99.95
2022-11-25T22:31:53.414Z,99.39
2022-11-25T22:34:21.651Z,98.79
2022-11-25T22:36:48.498Z,98.80
2022-11-25T22:39:15.081Z,99.27
2022-11-25T22:41:46.062Z,99.27
2022-11-25T22:44:16.596Z,98.88
2022-11-25T22:46:43.100Z,98.57
2022-11-25T22:49:20.200Z,98.50
2022-11-25T22:51:46.567Z,99.11
2022-11-25T22:54:13.042Z,98.99
2022-11-25T22:56:39.483Z,99.07
2022-11-25T22:59:05.863Z,98.99
2022-11-25T23:01:32.515Z,99.35
2022-11-25T23:03:59.036Z,98.77
2022-11-25T23:06:25.949Z,99.13
2022-11-25T23:08:52.453Z,98.56
2022-11-25T23:11:20.060Z,98.18
2022-11-25T23:13:48.711Z,98.83
2022-11-25T23:16:15.706Z,98.17
2022-11-25T23:18:44.825Z,98.93
2022-11-25T23:21:24.303Z,98.54
2022-11-25T23:23:50.940Z,99.09
2022-11-25T23:26:17.364Z,98.78
2022-11-25T23:28:43.786Z,98.65
2022-11-25T23:31:12.125Z,98.61
2022-11-25T23:33:48.757Z,99.01
2022-11-25T23:36:17.918Z,98.64
2022-11-25T23:38:46.492Z,98.95
2022-11-25T23:41:23.452Z,99.34
2022-11-25T23:43:49.839Z,99.09
2022-11-25T23:46:17.693Z,99.07
2022-11-25T23:48:46.015Z,98.60
2022-11-25T23:51:12.407Z,98.86
2022-11-25T23:53:39.534Z,99.08
2022-11-25T23:56:06.014Z,98.65
2022-11-25T23:58:32.500Z,99.29
